createdAt,value
2019-05-16T00:02:01.231Z,0.60
2019-05-16T00:06:02.575Z,0.80
2019-05-16T00:10:08.413Z,0.63
2019-05-16T00:14:12.751Z,0.70
2019-05-16T00:18:17.817Z,0.90
2019-05-16T00:22:22.142Z,1.13
2019-05-16T00:26:28.121Z,0.80
2019-05-16T00:30:32.909Z,0.80
2019-05-16T00:34:38.533Z,0.60
2019-05-16T00:38:42.860Z,0.80
2019-05-16T00:42:49.170Z,0.87
2019-05-16T00:46:52.802Z,0.80
2019-05-16T00:50:58.418Z,0.70
2019-05-16T00:55:02.920Z,0.90
2019-05-16T00:59:07.943Z,0.80
2019-05-16T01:03:13.044Z,0.93
2019-05-16T01:07:18.680Z,0.90
2019-05-16T01:11:22.904Z,1.37
2019-05-16T01:15:28.791Z,1.13
2019-05-16T01:19:33.083Z,1.00
2019-05-16T01:23:38.803Z,1.10
2019-05-16T01:27:44.027Z,1.20
2019-05-16T01:31:48.436Z,1.17
2019-05-16T01:35:52.569Z,1.00
2019-05-16T01:39:58.619Z,1.20
2019-05-16T01:44:02.476Z,1.30
2019-05-16T01:48:08.292Z,1.10
2019-05-16T01:52:12.450Z,1.00
2019-05-16T01:56:17.964Z,0.90
2019-05-16T02:00:25.420Z,0.90
2019-05-16T02:04:28.747Z,0.77
2019-05-16T02:08:32.840Z,0.70
2019-05-16T02:12:38.475Z,0.80
2019-05-16T02:16:43.749Z,0.70
2019-05-16T02:20:48.198Z,0.90
2019-05-16T02:24:52.335Z,1.00
2019-05-16T02:28:56.418Z,0.83
2019-05-16T02:33:01.231Z,0.70
2019-05-16T02:37:22.544Z,0.83
2019-05-16T02:41:11.473Z,0.70
2019-05-16T02:45:15.882Z,0.90
2019-05-16T02:49:21.628Z,0.77
2019-05-16T02:53:25.821Z,0.80
2019-05-16T02:57:31.679Z,0.77
2019-05-16T03:01:35.692Z,0.93
2019-05-16T03:05:41.825Z,0.77
2019-05-16T03:09:46.453Z,0.80
2019-05-16T03:13:52.093Z,0.90
2019-05-16T03:18:00.305Z,0.83
2019-05-16T03:22:04.636Z,1.00
2019-05-16T03:26:11.481Z,1.10
2019-05-16T03:30:16.524Z,0.80
2019-05-16T03:34:25.344Z,0.90
2019-05-16T03:38:26.265Z,0.90
2019-05-16T03:42:31.090Z,0.90
2019-05-16T03:46:35.388Z,0.93
2019-05-16T03:50:41.327Z,0.90
2019-05-16T03:54:45.483Z,1.10
2019-05-16T03:58:50.991Z,0.83
2019-05-16T04:02:55.191Z,0.77
2019-05-16T04:07:01.431Z,0.87
2019-05-16T04:11:04.777Z,0.77
2019-05-16T04:15:11.370Z,1.43
2019-05-16T04:19:14.816Z,0.90
2019-05-16T04:23:20.589Z,0.90
2019-05-16T04:27:24.598Z,1.00
2019-05-16T04:31:30.897Z,0.80
2019-05-16T04:35:34.439Z,1.10
2019-05-16T04:39:41.258Z,1.10
2019-05-16T04:43:44.328Z,1.40
2019-05-16T04:47:50.981Z,1.27
2019-05-16T04:51:54.210Z,1.20
2019-05-16T04:56:01.417Z,1.17
2019-05-16T05:00:04.058Z,1.00
2019-05-16T05:04:14.101Z,0.90
2019-05-16T05:08:13.996Z,1.23
2019-05-16T05:12:20.583Z,1.20
2019-05-16T05:20:45.497Z,0.90
2019-05-16T05:24:50.809Z,0.97
2019-05-16T05:28:55.043Z,1.07
2019-05-16T05:33:00.742Z,0.80
2019-05-16T05:37:04.888Z,1.10
2019-05-16T05:41:10.691Z,0.80
2019-05-16T05:45:14.861Z,1.00
2019-05-16T05:49:20.491Z,1.00
2019-05-16T05:53:24.790Z,0.80
2019-05-16T05:57:30.058Z,0.80
2019-05-16T06:01:34.576Z,1.00
2019-05-16T06:05:41.116Z,0.90
2019-05-16T06:09:53.629Z,0.83
2019-05-16T06:13:50.387Z,0.90
2019-05-16T06:18:13.649Z,1.00
2019-05-16T06:22:17.755Z,1.03
2019-05-16T06:26:21.956Z,0.87
2019-05-16T06:30:26.094Z,0.90
2019-05-16T06:34:30.335Z,1.00
2019-05-16T06:38:34.444Z,0.83
2019-05-16T06:42:40.314Z,0.80
2019-05-16T06:47:00.058Z,0.90
2019-05-16T06:50:51.540Z,0.70
2019-05-16T06:54:55.861Z,1.00
2019-05-16T06:59:00.881Z,0.80
2019-05-16T07:03:04.917Z,0.83
2019-05-16T07:07:11.944Z,1.00
2019-05-16T07:11:15.745Z,0.97
2019-05-16T07:15:20.671Z,0.80
2019-05-16T07:19:24.877Z,0.60
2019-05-16T07:23:29.892Z,0.70
2019-05-16T07:27:35.286Z,0.70
2019-05-16T07:31:40.605Z,0.87
2019-05-16T07:35:44.723Z,0.80
2019-05-16T07:39:51.076Z,0.70
2019-05-16T07:43:54.612Z,0.90
2019-05-16T07:48:00.089Z,0.80
2019-05-16T07:52:04.341Z,0.70
2019-05-16T07:56:10.563Z,0.90
2019-05-16T08:00:14.533Z,0.80
2019-05-16T08:04:19.859Z,0.63
2019-05-16T08:08:24.732Z,0.90
2019-05-16T08:12:32.813Z,0.95
2019-05-16T08:16:34.872Z,1.07
2019-05-16T08:20:41.324Z,1.27
2019-05-16T08:24:44.652Z,0.82
2019-05-16T08:28:50.260Z,0.60
2019-05-16T08:32:54.757Z,0.82
2019-05-16T08:37:01.136Z,0.80
2019-05-16T08:41:12.503Z,0.70
2019-05-16T08:45:12.662Z,0.70
2019-05-16T08:49:16.656Z,0.80
2019-05-16T08:57:28.116Z,0.60
2019-05-16T09:01:35.036Z,0.50
2019-05-16T09:05:38.089Z,0.50
2019-05-16T09:09:49.370Z,0.60
2019-05-16T09:10:31.816Z,0.60
2019-05-16T09:13:48.216Z,0.60
2019-05-16T09:17:52.438Z,0.60
2019-05-16T09:21:58.062Z,0.60
2019-05-16T09:26:03.433Z,0.80
2019-05-16T09:30:07.988Z,0.90
2019-05-16T09:34:12.230Z,0.78
2019-05-16T09:38:20.457Z,0.70
2019-05-16T09:42:22.251Z,0.90
2019-05-16T09:46:27.593Z,0.80
2019-05-16T09:50:31.884Z,0.80
2019-05-16T09:54:37.863Z,0.60
2019-05-16T09:58:42.000Z,1.00
2019-05-16T10:02:47.538Z,0.70
2019-05-16T10:06:51.924Z,0.98
2019-05-16T10:10:57.113Z,1.02
2019-05-16T10:15:01.391Z,1.00
2019-05-16T10:19:07.400Z,0.83
2019-05-16T10:23:14.948Z,1.02
2019-05-16T10:27:17.403Z,1.17
2019-05-16T10:31:21.571Z,1.05
2019-05-16T10:35:29.481Z,0.93
2019-05-16T10:39:31.763Z,0.90
2019-05-16T10:43:37.065Z,1.00
2019-05-16T10:47:41.355Z,1.20
2019-05-16T10:51:47.147Z,1.10
2019-05-16T10:55:51.357Z,1.20
2019-05-16T11:00:06.733Z,1.10
2019-05-16T11:04:01.418Z,1.10
2019-05-16T11:08:08.539Z,0.80
2019-05-16T11:12:12.901Z,0.93
2019-05-16T11:16:17.502Z,1.00
2019-05-16T11:20:21.695Z,0.93
2019-05-16T11:24:28.997Z,0.93
2019-05-16T11:28:31.992Z,1.10
2019-05-16T11:32:37.655Z,0.90
2019-05-16T11:36:41.979Z,0.80
2019-05-16T11:40:47.509Z,1.35
2019-05-16T11:44:52.046Z,0.90
2019-05-16T11:48:56.974Z,1.60
2019-05-16T11:53:01.236Z,1.30
2019-05-16T11:57:06.905Z,0.95
2019-05-16T12:01:11.382Z,1.10
2019-05-16T12:05:17.214Z,1.10
2019-05-16T12:09:21.486Z,1.12
2019-05-16T12:13:32.391Z,1.07
2019-05-16T12:17:31.547Z,1.02
2019-05-16T12:21:35.751Z,1.07
2019-05-16T12:25:39.914Z,1.50
2019-05-16T12:29:43.959Z,1.50
2019-05-16T12:33:48.287Z,1.30
2019-05-16T12:37:52.433Z,1.20
2019-05-16T12:41:59.206Z,1.15
2019-05-16T12:46:03.696Z,1.30
2019-05-16T12:50:07.985Z,1.42
2019-05-16T12:54:12.075Z,1.55
2019-05-16T12:58:25.024Z,1.47
2019-05-16T13:02:22.168Z,1.60
2019-05-16T13:06:27.744Z,1.60
2019-05-16T13:10:31.929Z,1.55
2019-05-16T13:14:40.177Z,2.37
2019-05-16T13:18:42.049Z,1.98
2019-05-16T13:22:47.357Z,1.87
2019-05-16T13:26:51.630Z,2.10
2019-05-16T13:30:57.724Z,2.02
2019-05-16T13:35:01.651Z,1.98
2019-05-16T13:39:08.063Z,2.08
2019-05-16T13:43:11.993Z,1.95
2019-05-16T13:47:17.396Z,2.10
2019-05-16T13:51:21.771Z,1.90
2019-05-16T13:55:27.159Z,1.77
2019-05-16T13:59:31.270Z,2.02
2019-05-16T14:03:37.353Z,2.00
2019-05-16T14:07:41.231Z,2.50
2019-05-16T14:11:46.382Z,1.90
2019-05-16T14:15:51.753Z,2.42
2019-05-16T14:19:57.289Z,2.72
2019-05-16T14:24:01.591Z,2.87
2019-05-16T14:28:48.834Z,2.62
2019-05-16T14:32:53.059Z,3.02
2019-05-16T14:36:57.907Z,2.75
2019-05-16T14:41:02.184Z,2.62
2019-05-16T14:45:12.123Z,2.70
2019-05-16T14:49:12.522Z,2.92
2019-05-16T14:53:17.984Z,2.50
2019-05-16T14:57:22.223Z,2.72
2019-05-16T15:01:26.759Z,3.12
2019-05-16T15:05:30.970Z,2.60
2019-05-16T15:09:37.824Z,2.37
2019-05-16T15:13:41.271Z,2.80
2019-05-16T15:17:48.890Z,3.10
2019-05-16T15:21:53.114Z,2.75
2019-05-16T15:25:57.382Z,2.85
2019-05-16T15:30:01.510Z,2.72
2019-05-16T15:34:05.977Z,2.87
2019-05-16T15:38:10.198Z,2.67
2019-05-16T15:42:17.701Z,2.67
2019-05-16T15:46:20.220Z,3.25
2019-05-16T15:50:28.183Z,3.15
2019-05-16T15:54:32.222Z,3.50
2019-05-16T15:58:37.557Z,2.87
2019-05-16T16:02:41.774Z,3.10
2019-05-16T16:06:47.381Z,3.22
2019-05-16T16:10:51.656Z,2.95
2019-05-16T16:14:57.341Z,2.87
2019-05-16T16:19:01.670Z,3.15
2019-05-16T16:23:06.836Z,2.87
2019-05-16T16:27:11.057Z,2.20
2019-05-16T16:31:16.753Z,2.30
2019-05-16T16:35:21.043Z,2.10
2019-05-16T16:39:26.825Z,2.00
2019-05-16T16:43:31.079Z,1.80
2019-05-16T16:47:37.734Z,1.57
2019-05-16T16:51:41.268Z,1.70
2019-05-16T16:55:47.428Z,1.62
2019-05-16T16:59:51.080Z,1.98
2019-05-16T17:03:57.427Z,1.70
2019-05-16T17:08:01.062Z,2.22
2019-05-16T17:12:06.670Z,2.10
2019-05-16T17:16:21.851Z,1.67
2019-05-16T17:20:17.917Z,2.02
2019-05-16T17:24:22.121Z,1.80
2019-05-16T17:28:26.318Z,1.52
2019-05-16T17:32:30.463Z,1.52
2019-05-16T17:36:37.085Z,1.40
2019-05-16T17:40:40.544Z,1.70
2019-05-16T17:44:47.290Z,2.07
2019-05-16T17:48:51.553Z,1.60
2019-05-16T17:52:57.727Z,1.42
2019-05-16T17:57:01.657Z,1.37
2019-05-16T18:01:07.789Z,1.40
2019-05-16T18:05:12.317Z,1.50
2019-05-16T18:09:17.019Z,1.50
2019-05-16T18:13:21.488Z,1.20
2019-05-16T18:17:26.845Z,1.40
2019-05-16T18:21:31.117Z,1.13
2019-05-16T18:25:36.476Z,1.53
2019-05-16T18:29:40.965Z,1.70
2019-05-16T18:33:45.478Z,1.20
2019-05-16T18:37:49.557Z,1.40
2019-05-16T18:41:53.550Z,1.10
2019-05-16T18:45:58.768Z,1.37
2019-05-16T18:50:03.287Z,1.00
2019-05-16T18:54:07.815Z,1.20
2019-05-16T18:58:12.023Z,1.60
2019-05-16T19:02:17.898Z,1.80
2019-05-16T19:06:22.116Z,1.90
2019-05-16T19:10:26.996Z,1.37
2019-05-16T19:14:31.234Z,1.57
2019-05-16T19:18:36.834Z,1.50
2019-05-16T19:22:41.214Z,1.53
2019-05-16T19:26:46.953Z,1.27
2019-05-16T19:30:51.293Z,1.37
2019-05-16T19:34:57.397Z,1.10
2019-05-16T19:39:01.918Z,1.20
2019-05-16T19:43:07.305Z,1.60
2019-05-16T19:47:11.537Z,2.00
2019-05-16T19:51:16.350Z,1.60
2019-05-16T19:55:26.868Z,1.70
2019-05-16T19:59:30.495Z,2.57
2019-05-16T20:03:36.473Z,1.87
2019-05-16T20:07:40.249Z,1.23
2019-05-16T20:11:46.359Z,2.33
2019-05-16T20:15:50.335Z,1.87
2019-05-16T20:19:56.250Z,2.30
2019-05-16T20:24:00.347Z,1.73
2019-05-16T20:28:08.417Z,1.40
2019-05-16T20:32:11.630Z,2.10
2019-05-16T20:36:17.312Z,1.60
2019-05-16T20:40:21.489Z,1.70
2019-05-16T20:44:26.729Z,1.43
2019-05-16T20:48:30.859Z,1.77
2019-05-16T20:52:37.523Z,1.70
2019-05-16T20:56:40.771Z,1.83
2019-05-16T21:00:49.397Z,1.80
2019-05-16T21:04:51.703Z,2.20
2019-05-16T21:08:57.434Z,1.80
2019-05-16T21:13:01.786Z,2.07
2019-05-16T21:17:06.705Z,1.87
2019-05-16T21:21:10.792Z,1.60
2019-05-16T21:25:16.924Z,1.50
2019-05-16T21:29:20.827Z,1.63
2019-05-16T21:33:27.076Z,1.90
2019-05-16T21:37:30.754Z,1.60
2019-05-16T21:41:36.604Z,2.07
2019-05-16T21:45:40.748Z,1.63
2019-05-16T21:49:47.091Z,1.60
2019-05-16T21:53:50.509Z,2.40
2019-05-16T21:57:54.680Z,2.20
2019-05-16T22:01:58.856Z,2.23
2019-05-16T22:06:02.904Z,2.30
2019-05-16T22:10:07.252Z,2.70
2019-05-16T22:14:12.789Z,2.73
2019-05-16T22:18:16.823Z,2.80
2019-05-16T22:22:20.778Z,2.53
2019-05-16T22:26:26.919Z,2.60
2019-05-16T22:30:30.576Z,2.67
2019-05-16T22:34:36.823Z,2.53
2019-05-16T22:38:40.383Z,2.43
2019-05-16T22:42:46.771Z,2.80
2019-05-16T22:46:50.290Z,3.33
2019-05-16T22:50:56.460Z,2.23
2019-05-16T22:55:00.170Z,2.77
2019-05-16T22:59:04.159Z,2.73
2019-05-16T23:03:10.292Z,2.40
2019-05-16T23:07:16.420Z,2.60
2019-05-16T23:11:20.139Z,2.30
2019-05-16T23:15:26.414Z,2.83
2019-05-16T23:19:30.175Z,2.60
2019-05-16T23:23:34.313Z,2.50
2019-05-16T23:27:38.530Z,2.13
2019-05-16T23:31:42.607Z,1.93
2019-05-16T23:35:46.972Z,2.37
2019-05-16T23:39:51.076Z,1.80
2019-05-16T23:43:56.660Z,1.47
2019-05-16T23:48:01.737Z,1.40
2019-05-16T23:52:07.482Z,1.37
2019-05-16T23:56:11.686Z,1.30
